createdAt,value
2018-03-26T00:02:11.640Z,28.12
2018-03-26T00:04:39.103Z,27.83
2018-03-26T00:07:06.568Z,27.23
2018-03-26T00:09:33.988Z,28.35
2018-03-26T00:12:01.508Z,32.70
2018-03-26T00:14:28.980Z,29.87
2018-03-26T00:16:56.410Z,28.25
2018-03-26T00:19:23.833Z,26.58
2018-03-26T00:21:51.271Z,28.15
2018-03-26T00:24:19.444Z,30.15
2018-03-26T00:26:47.640Z,25.33
2018-03-26T00:29:15.824Z,28.27
2018-03-26T00:31:44.136Z,25.52
2018-03-26T00:34:11.608Z,28.52
2018-03-26T00:36:39.076Z,28.75
2018-03-26T00:39:06.652Z,26.80
2018-03-26T00:41:34.119Z,38.30
2018-03-26T00:44:01.584Z,37.50
2018-03-26T00:46:29.016Z,41.72
2018-03-26T00:48:56.523Z,45.38
2018-03-26T00:51:23.992Z,44.70
2018-03-26T00:53:51.411Z,39.97
2018-03-26T00:56:18.931Z,39.67
2018-03-26T00:58:46.403Z,41.72
2018-03-26T01:01:13.876Z,42.00
2018-03-26T01:03:41.296Z,38.05
2018-03-26T01:06:08.723Z,44.90
2018-03-26T01:08:36.152Z,41.30
2018-03-26T01:11:04.384Z,43.15
2018-03-26T01:13:31.804Z,46.45
2018-03-26T01:16:00.032Z,41.33
2018-03-26T01:18:27.456Z,40.78
2018-03-26T01:20:54.935Z,39.50
2018-03-26T01:23:23.132Z,45.05
2018-03-26T01:25:51.316Z,41.92
2018-03-26T01:28:19.525Z,45.17
2018-03-26T01:30:46.992Z,41.88
2018-03-26T01:33:14.416Z,42.13
2018-03-26T01:35:41.844Z,43.75
2018-03-26T01:38:09.263Z,45.58
2018-03-26T01:40:37.452Z,45.75
2018-03-26T01:43:04.964Z,41.92
2018-03-26T01:45:32.378Z,45.67
2018-03-26T01:48:00.617Z,46.10
2018-03-26T01:50:28.036Z,46.75
2018-03-26T01:52:55.475Z,47.70
2018-03-26T01:55:22.887Z,47.40
2018-03-26T01:57:51.083Z,50.33
2018-03-26T02:00:19.272Z,52.90
2018-03-26T02:02:47.483Z,56.65
2018-03-26T02:05:14.951Z,47.92
2018-03-26T02:07:42.384Z,51.92
2018-03-26T02:10:09.818Z,53.65
2018-03-26T02:12:37.256Z,49.67
2018-03-26T02:15:04.688Z,45.72
2018-03-26T02:17:32.863Z,48.80
2018-03-26T02:20:00.279Z,45.20
2018-03-26T02:22:27.707Z,50.25
2018-03-26T02:24:55.228Z,46.40
2018-03-26T02:27:22.650Z,44.75
2018-03-26T02:29:50.159Z,46.08
2018-03-26T02:32:17.636Z,44.83
2018-03-26T02:34:45.112Z,44.50
2018-03-26T02:37:12.546Z,48.05
2018-03-26T02:39:39.965Z,45.85
2018-03-26T02:42:07.395Z,42.20
2018-03-26T02:44:34.820Z,44.92
2018-03-26T02:47:02.248Z,46.20
2018-03-26T02:49:29.719Z,44.88
2018-03-26T02:51:57.144Z,43.38
2018-03-26T02:54:24.656Z,46.42
2018-03-26T02:56:52.088Z,46.67
2018-03-26T02:59:19.508Z,42.95
2018-03-26T03:01:46.931Z,48.40
2018-03-26T03:04:15.153Z,52.35
2018-03-26T03:06:42.580Z,49.92
2018-03-26T03:09:10.008Z,42.85
2018-03-26T03:11:37.461Z,46.13
2018-03-26T03:14:04.928Z,45.28
2018-03-26T03:16:32.367Z,52.13
2018-03-26T03:19:00.555Z,46.65
2018-03-26T03:21:28.773Z,47.92
2018-03-26T03:23:56.204Z,48.30
2018-03-26T03:26:23.712Z,46.92
2018-03-26T03:28:51.142Z,43.83
2018-03-26T03:31:18.567Z,50.28
2018-03-26T03:33:46.026Z,46.67
2018-03-26T03:36:13.488Z,48.08
2018-03-26T03:38:40.963Z,45.47
2018-03-26T03:41:08.432Z,46.20
2018-03-26T03:43:35.899Z,47.53
2018-03-26T03:46:03.373Z,48.25
2018-03-26T03:48:30.843Z,47.22
2018-03-26T03:50:58.275Z,48.70
2018-03-26T03:53:25.691Z,47.47
2018-03-26T03:55:53.148Z,45.95
2018-03-26T03:58:20.576Z,46.97
2018-03-26T04:00:48.093Z,45.53
2018-03-26T04:03:15.511Z,44.78
2018-03-26T04:05:43.031Z,48.17
2018-03-26T04:08:10.452Z,43.87
2018-03-26T04:10:39.396Z,46.22
2018-03-26T04:13:06.871Z,48.35
2018-03-26T04:15:34.292Z,48.60
2018-03-26T04:18:01.813Z,44.67
2018-03-26T04:20:29.231Z,56.00
2018-03-26T04:22:56.663Z,59.05
2018-03-26T04:25:24.079Z,53.70
2018-03-26T04:27:51.592Z,46.20
2018-03-26T04:30:19.064Z,46.75
2018-03-26T04:32:46.495Z,60.75
2018-03-26T04:35:14.716Z,54.20
2018-03-26T04:37:42.188Z,44.80
2018-03-26T04:40:09.604Z,46.92
2018-03-26T04:42:37.844Z,47.90
2018-03-26T04:45:05.268Z,46.88
2018-03-26T04:47:32.693Z,42.28
2018-03-26T04:50:00.112Z,48.28
2018-03-26T04:52:27.619Z,46.80
2018-03-26T04:54:55.040Z,44.70
2018-03-26T04:57:22.468Z,41.22
2018-03-26T04:59:49.928Z,47.58
2018-03-26T05:02:17.405Z,42.95
2018-03-26T05:04:44.811Z,43.97
2018-03-26T05:07:12.335Z,43.03
2018-03-26T05:09:39.807Z,41.60
2018-03-26T05:12:07.277Z,50.75
2018-03-26T05:14:34.740Z,51.63
2018-03-26T05:17:02.212Z,44.67
2018-03-26T05:19:29.639Z,48.00
2018-03-26T05:21:57.056Z,41.63
2018-03-26T05:24:24.488Z,45.45
2018-03-26T05:26:52.676Z,48.20
2018-03-26T05:29:20.870Z,46.65
2018-03-26T05:31:49.056Z,46.17
2018-03-26T05:34:17.252Z,54.28
2018-03-26T05:36:44.672Z,45.65
2018-03-26T05:39:12.103Z,46.58
2018-03-26T05:41:39.572Z,41.28
2018-03-26T05:44:07.044Z,55.35
2018-03-26T05:46:34.464Z,52.83
2018-03-26T05:49:02.652Z,45.30
2018-03-26T05:51:30.168Z,48.00
2018-03-26T05:53:57.600Z,41.10
2018-03-26T05:56:25.108Z,44.33
2018-03-26T05:58:52.583Z,51.58
2018-03-26T06:01:20.052Z,46.65
2018-03-26T06:03:47.520Z,48.58
2018-03-26T06:06:15.001Z,43.40
2018-03-26T06:08:42.466Z,47.17
2018-03-26T06:11:09.883Z,49.95
2018-03-26T06:13:37.406Z,49.22
2018-03-26T06:16:04.824Z,48.25
2018-03-26T06:18:33.206Z,47.40
2018-03-26T06:21:00.620Z,42.55
2018-03-26T06:23:28.043Z,44.50
2018-03-26T06:25:55.464Z,51.10
2018-03-26T06:28:22.896Z,46.72
2018-03-26T06:30:50.316Z,44.63
2018-03-26T06:33:17.748Z,45.12
2018-03-26T06:35:45.927Z,45.42
2018-03-26T06:38:19.862Z,45.60
2018-03-26T06:40:48.049Z,50.03
2018-03-26T06:43:16.243Z,56.60
2018-03-26T06:45:43.727Z,51.80
2018-03-26T06:48:11.199Z,51.28
2018-03-26T06:50:38.615Z,50.03
2018-03-26T06:53:06.045Z,44.88
2018-03-26T06:55:33.499Z,41.65
2018-03-26T06:58:00.936Z,41.08
2018-03-26T07:00:29.112Z,39.05
2018-03-26T07:02:56.633Z,38.72
2018-03-26T07:05:24.104Z,39.85
2018-03-26T07:07:51.583Z,39.42
2018-03-26T07:10:18.992Z,47.53
2018-03-26T07:12:46.424Z,47.95
2018-03-26T07:15:13.884Z,51.67
2018-03-26T07:17:41.344Z,54.42
2018-03-26T07:20:08.822Z,52.42
2018-03-26T07:22:36.292Z,53.47
2018-03-26T07:25:03.760Z,56.83
2018-03-26T07:27:31.190Z,53.90
2018-03-26T07:29:58.620Z,54.00
2018-03-26T07:32:26.064Z,53.50
2018-03-26T07:34:53.491Z,55.97
2018-03-26T07:37:20.986Z,53.42
2018-03-26T07:39:49.175Z,51.90
2018-03-26T07:42:16.663Z,53.25
2018-03-26T07:44:44.136Z,49.00
2018-03-26T07:47:11.556Z,53.17
2018-03-26T07:49:38.980Z,50.33
2018-03-26T07:52:06.395Z,54.53
2018-03-26T07:54:34.628Z,49.20
2018-03-26T07:57:02.096Z,57.08
2018-03-26T07:59:29.564Z,52.05
2018-03-26T08:01:57.043Z,56.33
2018-03-26T08:04:24.508Z,50.63
2018-03-26T08:06:51.923Z,56.80
2018-03-26T08:09:19.356Z,55.38
2018-03-26T08:11:46.814Z,50.00
2018-03-26T08:14:14.243Z,47.03
2018-03-26T08:16:41.666Z,48.78
2018-03-26T08:19:09.091Z,54.33
2018-03-26T08:21:37.281Z,47.50
2018-03-26T08:24:05.492Z,49.33
2018-03-26T08:26:32.910Z,51.20
2018-03-26T08:29:00.436Z,48.50
2018-03-26T08:31:27.900Z,46.03
2018-03-26T08:33:55.376Z,52.80
2018-03-26T08:36:22.800Z,47.97
2018-03-26T08:38:50.311Z,45.28
2018-03-26T08:41:17.784Z,45.67
2018-03-26T08:43:45.203Z,48.80
2018-03-26T08:46:13.540Z,50.78
2018-03-26T08:48:41.010Z,45.05
2018-03-26T08:51:08.428Z,47.78
2018-03-26T08:53:35.892Z,47.22
2018-03-26T08:56:03.324Z,49.78
2018-03-26T08:58:30.787Z,46.85
2018-03-26T09:00:58.216Z,47.05
2018-03-26T09:03:25.635Z,49.20
2018-03-26T09:05:53.056Z,50.63
2018-03-26T09:08:20.488Z,47.85
2018-03-26T09:10:47.912Z,50.28
2018-03-26T09:13:16.108Z,51.63
2018-03-26T09:15:43.524Z,49.58
2018-03-26T09:18:10.959Z,49.80
2018-03-26T09:20:43.352Z,53.00
2018-03-26T09:23:10.811Z,50.60
2018-03-26T09:25:38.233Z,52.28
2018-03-26T09:28:07.162Z,47.55
2018-03-26T09:30:35.348Z,59.42
2018-03-26T09:33:03.545Z,54.00
2018-03-26T09:35:31.752Z,53.10
2018-03-26T09:37:59.172Z,53.75
2018-03-26T09:40:26.596Z,54.80
2018-03-26T09:42:54.056Z,58.53
2018-03-26T09:45:21.626Z,50.42
2018-03-26T09:47:49.796Z,60.20
2018-03-26T09:50:17.232Z,50.15
2018-03-26T09:52:44.691Z,50.00
2018-03-26T09:55:12.119Z,50.33
2018-03-26T09:57:39.542Z,48.22
2018-03-26T10:00:06.963Z,52.13
2018-03-26T10:02:34.392Z,49.83
2018-03-26T10:05:01.892Z,50.38
2018-03-26T10:07:29.371Z,46.85
2018-03-26T10:09:56.791Z,52.62
2018-03-26T10:12:24.307Z,43.22
2018-03-26T10:14:51.741Z,45.65
2018-03-26T10:17:19.959Z,50.20
2018-03-26T10:19:47.388Z,52.20
2018-03-26T10:22:14.810Z,55.63
2018-03-26T10:24:42.279Z,57.58
2018-03-26T10:27:10.517Z,57.25
2018-03-26T10:29:38.031Z,55.65
2018-03-26T10:32:05.499Z,63.90
2018-03-26T10:34:32.967Z,57.72
2018-03-26T10:37:00.440Z,64.55
2018-03-26T10:39:27.904Z,62.17
2018-03-26T10:41:55.375Z,69.32
2018-03-26T10:44:22.807Z,66.47
2018-03-26T10:46:50.317Z,65.72
2018-03-26T10:49:17.791Z,60.55
2018-03-26T10:51:45.262Z,67.37
2018-03-26T10:54:12.692Z,68.72
2018-03-26T10:56:40.908Z,70.40
2018-03-26T10:59:08.340Z,70.10
2018-03-26T11:01:36.522Z,68.20
2018-03-26T11:04:04.043Z,69.15
2018-03-26T11:06:32.266Z,70.87
2018-03-26T11:08:59.656Z,69.47
2018-03-26T11:11:27.845Z,72.87
2018-03-26T11:13:55.267Z,67.57
2018-03-26T11:16:22.687Z,70.43
2018-03-26T11:18:50.912Z,74.55
2018-03-26T11:21:18.376Z,69.57
2018-03-26T11:23:45.809Z,75.65
2018-03-26T11:26:13.236Z,69.50
2018-03-26T11:28:40.670Z,70.57
2018-03-26T11:31:08.875Z,70.40
2018-03-26T11:33:36.343Z,71.10
2018-03-26T11:36:03.811Z,73.95
2018-03-26T11:38:32.960Z,79.28
2018-03-26T11:41:00.496Z,78.45
2018-03-26T11:43:27.968Z,75.45
2018-03-26T11:45:55.431Z,75.10
2018-03-26T11:48:22.852Z,74.57
2018-03-26T11:50:50.286Z,73.45
2018-03-26T11:53:17.709Z,71.82
2018-03-26T11:55:45.904Z,73.68
2018-03-26T11:58:14.121Z,66.05
2018-03-26T12:00:41.581Z,66.82
2018-03-26T12:03:09.772Z,70.30
2018-03-26T12:05:37.208Z,67.43
2018-03-26T12:08:05.427Z,63.65
2018-03-26T12:10:32.852Z,66.62
2018-03-26T12:13:00.369Z,64.43
2018-03-26T12:15:28.759Z,68.35
2018-03-26T12:18:02.748Z,65.75
2018-03-26T12:20:42.748Z,61.97
2018-03-26T12:23:22.139Z,66.00
2018-03-26T12:25:49.691Z,62.97
2018-03-26T12:28:29.519Z,62.85
2018-03-26T12:30:57.720Z,58.08
2018-03-26T12:33:25.184Z,52.78
2018-03-26T12:35:53.400Z,54.97
2018-03-26T12:38:20.828Z,63.78
2018-03-26T12:40:51.932Z,52.80
2018-03-26T12:43:19.356Z,55.90
2018-03-26T12:45:58.822Z,51.15
2018-03-26T12:48:26.250Z,50.75
2018-03-26T12:51:06.564Z,51.17
2018-03-26T12:53:33.986Z,50.83
2018-03-26T12:56:02.216Z,54.75
2018-03-26T12:58:41.588Z,50.20
2018-03-26T13:01:21.016Z,54.30
2018-03-26T13:03:48.488Z,55.50
2018-03-26T13:06:15.956Z,56.92
2018-03-26T13:08:43.533Z,53.13
2018-03-26T13:11:10.960Z,58.83
2018-03-26T13:13:38.476Z,54.05
2018-03-26T13:16:05.941Z,55.33
2018-03-26T13:18:34.267Z,57.80
2018-03-26T13:21:01.800Z,54.55
2018-03-26T13:23:29.268Z,56.80
2018-03-26T13:25:56.736Z,56.25
2018-03-26T13:28:24.168Z,57.42
2018-03-26T13:30:52.402Z,60.22
2018-03-26T13:33:20.192Z,58.65
2018-03-26T13:35:47.585Z,53.50
2018-03-26T13:38:15.835Z,52.38
2018-03-26T13:40:44.386Z,54.08
2018-03-26T13:43:11.789Z,55.12
2018-03-26T13:45:39.268Z,53.10
2018-03-26T13:48:06.740Z,53.70
2018-03-26T13:50:34.203Z,53.45
2018-03-26T13:53:01.631Z,54.33
2018-03-26T13:55:29.056Z,53.83
2018-03-26T13:57:56.483Z,53.45
2018-03-26T14:00:24.704Z,56.47
2018-03-26T14:02:52.172Z,61.42
2018-03-26T14:05:19.604Z,56.97
2018-03-26T14:07:47.788Z,61.60
2018-03-26T14:10:27.895Z,54.33
2018-03-26T14:13:07.340Z,56.42
2018-03-26T14:15:46.806Z,58.97
2018-03-26T14:18:14.228Z,63.85
2018-03-26T14:20:42.425Z,62.15
2018-03-26T14:23:10.607Z,53.63
2018-03-26T14:25:38.828Z,59.97
2018-03-26T14:28:06.247Z,59.78
2018-03-26T14:30:33.765Z,56.22
2018-03-26T14:33:01.940Z,57.35
2018-03-26T14:35:44.249Z,63.72
2018-03-26T14:38:12.440Z,62.60
2018-03-26T14:40:40.633Z,60.88
2018-03-26T14:43:08.093Z,56.05
2018-03-26T14:45:36.996Z,57.42
2018-03-26T14:48:05.216Z,60.92
2018-03-26T14:50:32.681Z,57.72
2018-03-26T14:53:00.099Z,53.63
2018-03-26T14:55:27.585Z,57.17
2018-03-26T14:57:54.959Z,54.97
2018-03-26T15:00:23.152Z,57.05
2018-03-26T15:02:51.405Z,61.97
2018-03-26T15:05:18.786Z,60.42
2018-03-26T15:07:47.016Z,59.42
2018-03-26T15:10:14.491Z,56.20
2018-03-26T15:12:41.949Z,61.20
2018-03-26T15:15:09.376Z,59.65
2018-03-26T15:17:37.604Z,59.55
2018-03-26T15:20:05.080Z,53.08
2018-03-26T15:22:32.556Z,53.05
2018-03-26T15:24:59.975Z,54.35
2018-03-26T15:27:27.629Z,56.30
2018-03-26T15:29:54.961Z,55.85
2018-03-26T15:32:22.424Z,59.78
2018-03-26T15:34:49.852Z,57.42
2018-03-26T15:37:17.280Z,55.03
2018-03-26T15:39:44.945Z,54.67
2018-03-26T15:42:12.412Z,58.05
2018-03-26T15:44:39.899Z,55.25
2018-03-26T15:47:07.334Z,52.00
2018-03-26T15:49:34.760Z,52.53
2018-03-26T15:52:02.252Z,52.53
2018-03-26T15:54:29.673Z,51.00
2018-03-26T15:56:57.107Z,52.15
2018-03-26T15:59:25.297Z,46.35
2018-03-26T16:01:53.000Z,50.90
2018-03-26T16:04:20.450Z,45.38
2018-03-26T16:06:48.649Z,47.88
2018-03-26T16:09:16.116Z,50.38
2018-03-26T16:11:43.685Z,51.72
2018-03-26T16:14:11.160Z,58.70
2018-03-26T16:16:38.605Z,50.83
2018-03-26T16:19:06.787Z,50.67
2018-03-26T16:21:34.999Z,52.95
2018-03-26T16:24:02.419Z,51.13
2018-03-26T16:26:29.936Z,52.20
2018-03-26T16:28:57.363Z,46.70
2018-03-26T16:31:24.796Z,47.58
2018-03-26T16:33:52.252Z,46.60
2018-03-26T16:36:19.719Z,50.92
2018-03-26T16:38:47.143Z,50.70
2018-03-26T16:41:26.568Z,51.35
2018-03-26T16:43:54.011Z,51.67
2018-03-26T16:46:21.434Z,51.95
2018-03-26T16:48:48.943Z,48.65
2018-03-26T16:51:16.378Z,46.65
2018-03-26T16:53:43.804Z,58.10
2018-03-26T16:56:11.232Z,47.08
2018-03-26T16:58:39.423Z,52.42
2018-03-26T17:01:06.916Z,44.80
2018-03-26T17:03:34.388Z,49.25
2018-03-26T17:06:01.809Z,49.80
2018-03-26T17:08:29.240Z,47.88
2018-03-26T17:10:56.698Z,50.50
2018-03-26T17:13:24.124Z,49.08
2018-03-26T17:15:52.307Z,50.15
2018-03-26T17:18:20.512Z,49.28
2018-03-26T17:20:48.705Z,49.50
2018-03-26T17:23:16.188Z,51.60
2018-03-26T17:25:43.611Z,53.75
2018-03-26T17:28:11.072Z,52.47
2018-03-26T17:30:38.592Z,48.95
2018-03-26T17:33:06.024Z,57.22
2018-03-26T17:35:33.447Z,53.53
2018-03-26T17:38:00.903Z,55.08
2018-03-26T17:40:28.368Z,52.67
2018-03-26T17:42:55.799Z,51.25
2018-03-26T17:45:24.728Z,49.78
2018-03-26T17:47:52.935Z,57.25
2018-03-26T17:50:20.410Z,50.30
2018-03-26T17:52:47.836Z,54.20
2018-03-26T17:55:16.072Z,50.70
2018-03-26T17:57:43.557Z,52.40
2018-03-26T18:00:11.007Z,51.83
2018-03-26T18:02:38.424Z,53.03
2018-03-26T18:05:05.941Z,49.63
2018-03-26T18:07:33.372Z,51.80
2018-03-26T18:10:01.653Z,51.22
2018-03-26T18:12:29.032Z,54.03
2018-03-26T18:14:57.248Z,52.42
2018-03-26T18:17:24.690Z,54.00
2018-03-26T18:19:52.872Z,55.72
2018-03-26T18:22:20.307Z,53.78
2018-03-26T18:24:47.736Z,54.65
2018-03-26T18:27:15.164Z,53.63
2018-03-26T18:29:42.584Z,60.50
2018-03-26T18:32:10.008Z,62.03
2018-03-26T18:34:38.939Z,66.40
2018-03-26T18:37:07.136Z,69.85
2018-03-26T18:39:34.616Z,60.47
2018-03-26T18:42:02.035Z,57.47
2018-03-26T18:44:29.492Z,54.42
2018-03-26T18:46:56.896Z,62.67
2018-03-26T18:49:25.091Z,60.88
2018-03-26T18:51:53.277Z,67.47
2018-03-26T18:54:21.480Z,61.97
2018-03-26T18:56:48.899Z,60.55
2018-03-26T18:59:16.332Z,52.38
2018-03-26T19:01:43.760Z,41.13
2018-03-26T19:04:11.960Z,32.05
2018-03-26T19:06:40.143Z,27.95
2018-03-26T19:09:08.346Z,27.17
2018-03-26T19:11:35.821Z,25.20
2018-03-26T19:14:03.259Z,26.48
2018-03-26T19:16:30.756Z,19.87
2018-03-26T19:18:58.188Z,15.75
2018-03-26T19:21:25.699Z,16.10
2018-03-26T19:23:53.125Z,20.48
2018-03-26T19:26:20.544Z,13.40
2018-03-26T19:28:48.049Z,12.77
2018-03-26T19:31:15.475Z,12.37
2018-03-26T19:33:42.920Z,10.05
2018-03-26T19:36:11.118Z,15.13
2018-03-26T19:38:38.542Z,16.83
2018-03-26T19:41:06.076Z,13.23
2018-03-26T19:43:33.506Z,13.35
2018-03-26T19:46:01.728Z,7.90
2018-03-26T19:48:29.170Z,10.07
2018-03-26T19:50:56.564Z,8.52
2018-03-26T19:53:23.982Z,8.02
2018-03-26T19:55:51.508Z,6.85
2018-03-26T19:58:18.919Z,6.40
2018-03-26T20:00:46.450Z,6.15
2018-03-26T20:03:13.856Z,4.80
2018-03-26T20:05:41.276Z,6.07
2018-03-26T20:08:08.751Z,4.57
2018-03-26T20:10:36.220Z,7.07
2018-03-26T20:13:03.642Z,4.97
2018-03-26T20:15:31.160Z,6.82
2018-03-26T20:17:58.636Z,6.22
2018-03-26T20:20:26.104Z,4.80
2018-03-26T20:22:53.555Z,5.37
2018-03-26T20:25:21.041Z,6.28
2018-03-26T20:27:48.452Z,4.82
2018-03-26T20:30:15.876Z,5.62
2018-03-26T20:32:43.304Z,11.68
2018-03-26T20:35:10.817Z,12.85
2018-03-26T20:37:38.292Z,12.20
2018-03-26T20:40:05.757Z,12.10
2018-03-26T20:42:33.294Z,8.95
2018-03-26T20:45:00.643Z,13.10
2018-03-26T20:47:28.173Z,11.00
2018-03-26T20:49:55.593Z,18.80
2018-03-26T20:52:23.014Z,11.45
2018-03-26T20:54:50.437Z,6.85
2018-03-26T20:57:18.611Z,10.00
2018-03-26T20:59:46.036Z,13.98
2018-03-26T21:02:13.463Z,9.82
2018-03-26T21:04:40.875Z,8.07
2018-03-26T21:07:08.296Z,8.48
2018-03-26T21:09:35.717Z,11.07
2018-03-26T21:12:03.177Z,9.32
2018-03-26T21:14:30.644Z,9.30
2018-03-26T21:16:58.115Z,9.00
2018-03-26T21:19:25.584Z,8.70
2018-03-26T21:21:53.000Z,8.63
2018-03-26T21:24:20.520Z,9.15
2018-03-26T21:26:47.932Z,8.98
2018-03-26T21:29:15.352Z,13.45
2018-03-26T21:31:42.768Z,10.60
2018-03-26T21:34:10.247Z,7.10
2018-03-26T21:36:37.655Z,6.65
2018-03-26T21:39:05.140Z,8.68
2018-03-26T21:41:32.609Z,9.07
2018-03-26T21:44:00.029Z,9.68
2018-03-26T21:46:27.539Z,7.12
2018-03-26T21:48:54.963Z,10.57
2018-03-26T21:51:22.380Z,8.65
2018-03-26T21:53:49.855Z,9.90
2018-03-26T21:56:17.325Z,9.35
2018-03-26T21:58:44.798Z,15.18
2018-03-26T22:01:12.260Z,12.10
2018-03-26T22:03:39.680Z,18.27
2018-03-26T22:06:07.868Z,11.15
2018-03-26T22:08:35.281Z,13.50
2018-03-26T22:11:02.758Z,10.90
2018-03-26T22:13:30.916Z,11.45
2018-03-26T22:15:59.105Z,9.63
2018-03-26T22:18:27.312Z,9.35
2018-03-26T22:20:54.789Z,8.45
2018-03-26T22:23:22.204Z,12.23
2018-03-26T22:25:49.725Z,9.15
2018-03-26T22:28:17.139Z,8.15
2018-03-26T22:30:44.669Z,12.80
2018-03-26T22:33:12.144Z,11.77
2018-03-26T22:35:39.584Z,8.13
2018-03-26T22:38:07.763Z,7.25
2018-03-26T22:40:35.948Z,11.07
2018-03-26T22:43:04.140Z,9.68
2018-03-26T22:45:32.317Z,10.02
2018-03-26T22:47:59.736Z,9.68
2018-03-26T22:50:27.147Z,8.27
2018-03-26T22:52:54.567Z,9.18
2018-03-26T22:55:22.028Z,9.30
2018-03-26T22:57:49.500Z,7.87
2018-03-26T23:00:16.968Z,7.90
2018-03-26T23:02:44.444Z,11.05
2018-03-26T23:05:11.908Z,12.68
2018-03-26T23:07:39.327Z,11.70
2018-03-26T23:10:06.739Z,7.62
2018-03-26T23:12:34.216Z,8.70
2018-03-26T23:15:01.634Z,8.07
2018-03-26T23:17:29.047Z,11.02
2018-03-26T23:19:56.524Z,6.70
2018-03-26T23:22:36.176Z,6.75
2018-03-26T23:25:03.592Z,6.15
2018-03-26T23:27:31.120Z,9.57
2018-03-26T23:29:58.540Z,9.75
2018-03-26T23:32:26.084Z,8.50
2018-03-26T23:34:53.488Z,12.88
2018-03-26T23:37:20.900Z,9.05
2018-03-26T23:39:48.390Z,9.25
2018-03-26T23:42:15.783Z,8.75
2018-03-26T23:44:43.304Z,10.57
2018-03-26T23:47:10.779Z,6.53
2018-03-26T23:49:38.247Z,10.02
2018-03-26T23:52:05.718Z,9.05
2018-03-26T23:54:33.134Z,14.18
2018-03-26T23:57:00.543Z,7.70
2018-03-26T23:59:27.964Z,7.65
